createdAt,value
2019-02-19T00:02:12.864Z,92692.95
2019-02-19T00:05:02.155Z,92691.81
2019-02-19T00:07:51.498Z,92689.36
2019-02-19T00:10:41.148Z,92695.64
2019-02-19T00:13:30.452Z,92688.81
2019-02-19T00:16:19.854Z,92689.23
2019-02-19T00:19:09.056Z,92688.04
2019-02-19T00:21:58.397Z,92683.75
2019-02-19T00:24:47.947Z,92683.37
2019-02-19T00:27:37.729Z,92681.39
2019-02-19T00:30:27.107Z,92682.83
2019-02-19T00:33:16.703Z,92678.42
2019-02-19T00:36:06.007Z,92674.25
2019-02-19T00:38:55.362Z,92677.58
2019-02-19T00:41:44.704Z,92677.77
2019-02-19T00:44:34.318Z,92671.47
2019-02-19T00:47:23.790Z,92664.04
2019-02-19T00:50:15.552Z,92661.82
2019-02-19T00:53:04.736Z,92660.54
2019-02-19T00:55:53.963Z,92666.98
2019-02-19T00:58:43.191Z,92667.27
2019-02-19T01:01:32.916Z,92662.30
2019-02-19T01:04:22.315Z,92655.50
2019-02-19T01:07:11.953Z,92656.64
2019-02-19T01:10:01.318Z,92651.32
2019-02-19T01:12:50.352Z,92652.30
2019-02-19T01:15:39.631Z,92649.03
2019-02-19T01:18:28.982Z,92642.81
2019-02-19T01:21:19.542Z,92643.20
2019-02-19T01:24:09.287Z,92638.77
2019-02-19T01:26:59.395Z,92640.13
2019-02-19T01:29:47.990Z,92633.62
2019-02-19T01:32:37.187Z,92631.34
2019-02-19T01:35:26.478Z,92626.39
2019-02-19T01:38:15.768Z,92627.08
2019-02-19T01:41:04.983Z,92622.63
2019-02-19T01:43:54.492Z,92621.25
2019-02-19T01:46:43.547Z,92618.73
2019-02-19T01:49:33.059Z,92622.16
2019-02-19T01:52:21.872Z,92620.88
2019-02-19T01:55:14.091Z,92621.42
2019-02-19T01:58:03.669Z,92620.78
2019-02-19T02:00:52.988Z,92615.75
2019-02-19T02:03:42.381Z,92614.02
2019-02-19T02:06:31.751Z,92614.34
2019-02-19T02:09:21.084Z,92611.09
2019-02-19T02:12:10.433Z,92613.70
2019-02-19T02:14:59.822Z,92616.45
2019-02-19T02:17:49.101Z,92611.61
2019-02-19T02:20:40.147Z,92608.28
2019-02-19T02:23:29.727Z,92613.91
2019-02-19T02:26:18.631Z,92608.53
2019-02-19T02:29:08.066Z,92607.09
2019-02-19T02:31:58.045Z,92612.03
2019-02-19T02:34:46.924Z,92613.03
2019-02-19T02:37:35.770Z,92605.22
2019-02-19T02:40:25.254Z,92599.00
2019-02-19T02:43:14.371Z,92600.47
2019-02-19T02:46:03.597Z,92601.65
2019-02-19T02:48:52.482Z,92595.06
2019-02-19T02:51:42.002Z,92600.17
2019-02-19T02:54:30.871Z,92598.64
2019-02-19T02:57:20.330Z,92594.14
2019-02-19T03:00:11.129Z,92595.38
2019-02-19T03:03:00.687Z,92595.63
2019-02-19T03:06:11.750Z,92594.55
2019-02-19T03:09:00.272Z,92594.55
2019-02-19T03:11:49.619Z,92598.98
2019-02-19T03:14:38.933Z,92596.02
2019-02-19T03:17:28.254Z,92595.06
2019-02-19T03:20:17.564Z,92588.18
2019-02-19T03:23:07.407Z,92596.42
2019-02-19T03:25:57.042Z,92598.06
2019-02-19T03:28:45.821Z,92593.58
2019-02-19T03:31:35.068Z,92597.97
2019-02-19T03:34:24.419Z,92597.41
2019-02-19T03:37:13.768Z,92595.45
2019-02-19T03:40:03.500Z,92599.56
2019-02-19T03:42:52.895Z,92596.78
2019-02-19T03:45:42.216Z,92601.19
2019-02-19T03:48:31.019Z,92595.16
2019-02-19T03:51:20.309Z,92593.33
2019-02-19T03:54:09.587Z,92595.75
2019-02-19T03:56:59.093Z,92601.10
2019-02-19T03:59:48.481Z,92600.83
2019-02-19T04:02:38.665Z,92602.61
2019-02-19T04:05:27.665Z,92600.03
2019-02-19T04:08:16.965Z,92606.82
2019-02-19T04:11:06.442Z,92608.45
2019-02-19T04:13:55.864Z,92605.33
2019-02-19T04:16:45.236Z,92602.45
2019-02-19T04:19:34.515Z,92603.05
2019-02-19T04:22:23.617Z,92599.64
2019-02-19T04:25:12.507Z,92602.30
2019-02-19T04:28:01.751Z,92604.73
2019-02-19T04:30:50.863Z,92600.28
2019-02-19T04:33:40.083Z,92602.25
2019-02-19T04:36:29.762Z,92602.38
2019-02-19T04:39:19.031Z,92599.75
2019-02-19T04:42:08.704Z,92599.84
2019-02-19T04:44:58.289Z,92601.78
2019-02-19T04:47:47.912Z,92598.45
2019-02-19T04:50:37.131Z,92607.16
2019-02-19T04:53:26.898Z,92603.09
2019-02-19T04:56:16.414Z,92612.41
2019-02-19T04:59:05.908Z,92611.32
2019-02-19T05:01:55.281Z,92614.49
2019-02-19T05:04:51.095Z,92610.81
2019-02-19T05:07:40.346Z,92620.48
2019-02-19T05:10:29.375Z,92617.72
2019-02-19T05:13:18.180Z,92613.30
2019-02-19T05:16:07.978Z,92623.73
2019-02-19T05:18:57.425Z,92624.48
2019-02-19T05:21:46.975Z,92620.08
2019-02-19T05:24:36.580Z,92620.85
2019-02-19T05:27:25.912Z,92621.90
2019-02-19T05:30:15.299Z,92615.84
2019-02-19T05:33:04.689Z,92619.19
2019-02-19T05:35:54.161Z,92620.70
2019-02-19T05:38:45.354Z,92625.12
2019-02-19T05:41:34.567Z,92632.88
2019-02-19T05:44:24.276Z,92631.99
2019-02-19T05:47:14.208Z,92628.52
2019-02-19T05:50:03.906Z,92634.06
2019-02-19T05:52:53.486Z,92645.12
2019-02-19T05:55:43.001Z,92643.80
2019-02-19T05:58:32.396Z,92648.81
2019-02-19T06:01:23.621Z,92644.60
2019-02-19T06:04:16.666Z,92648.62
2019-02-19T06:07:05.574Z,92651.09
2019-02-19T06:09:54.566Z,92649.52
2019-02-19T06:12:44.240Z,92650.44
2019-02-19T06:15:33.568Z,92653.13
2019-02-19T06:18:22.950Z,92658.73
2019-02-19T06:21:12.419Z,92657.33
2019-02-19T06:24:01.737Z,92660.45
2019-02-19T06:26:50.974Z,92656.52
2019-02-19T06:29:40.313Z,92658.56
2019-02-19T06:32:29.580Z,92654.44
2019-02-19T06:35:18.710Z,92656.59
2019-02-19T06:38:08.165Z,92662.98
2019-02-19T06:40:57.441Z,92663.41
2019-02-19T06:43:52.271Z,92660.42
2019-02-19T06:46:41.507Z,92658.38
2019-02-19T06:49:30.865Z,92661.02
2019-02-19T06:52:20.104Z,92661.16
2019-02-19T06:55:09.504Z,92658.36
2019-02-19T06:57:59.177Z,92665.12
2019-02-19T07:00:48.647Z,92665.45
2019-02-19T07:03:43.274Z,92662.59
2019-02-19T07:06:32.944Z,92656.78
2019-02-19T07:09:22.351Z,92657.02
2019-02-19T07:12:11.086Z,92655.67
2019-02-19T07:15:00.102Z,92663.40
2019-02-19T07:17:49.549Z,92658.55
2019-02-19T07:20:39.277Z,92651.28
2019-02-19T07:23:28.793Z,92648.95
2019-02-19T07:26:17.798Z,92653.27
2019-02-19T07:29:07.287Z,92654.05
2019-02-19T07:31:56.132Z,92650.73
2019-02-19T07:34:45.541Z,92645.80
2019-02-19T07:37:34.902Z,92647.80
2019-02-19T07:40:25.819Z,92646.74
2019-02-19T07:43:15.360Z,92642.87
2019-02-19T07:46:04.677Z,92637.61
2019-02-19T07:48:54.558Z,92637.61
2019-02-19T07:51:43.832Z,92635.52
2019-02-19T07:54:32.610Z,92637.44
2019-02-19T07:57:22.287Z,92630.89
2019-02-19T08:00:12.221Z,92635.67
2019-02-19T08:03:01.407Z,92627.97
2019-02-19T08:05:51.478Z,92625.30
2019-02-19T08:08:41.247Z,92631.79
2019-02-19T08:11:30.587Z,92631.50
2019-02-19T08:14:19.830Z,92629.36
2019-02-19T08:17:08.903Z,92624.88
2019-02-19T08:19:58.360Z,92623.76
2019-02-19T08:22:47.682Z,92619.34
2019-02-19T08:25:37.221Z,92626.09
2019-02-19T08:28:27.515Z,92620.97
2019-02-19T08:31:16.859Z,92620.66
2019-02-19T08:34:06.431Z,92620.36
2019-02-19T08:36:55.968Z,92625.07
2019-02-19T08:39:45.983Z,92623.94
2019-02-19T08:42:35.587Z,92611.55
2019-02-19T08:45:25.210Z,92616.97
2019-02-19T08:48:14.523Z,92620.44
2019-02-19T08:51:03.611Z,92614.94
2019-02-19T08:53:52.922Z,92620.72
2019-02-19T08:56:42.583Z,92609.49
2019-02-19T08:59:32.028Z,92614.31
2019-02-19T09:02:20.932Z,92611.28
2019-02-19T09:05:09.696Z,92609.18
2019-02-19T09:07:59.134Z,92603.98
2019-02-19T09:10:48.796Z,92601.44
2019-02-19T09:13:38.632Z,92603.72
2019-02-19T09:16:28.055Z,92599.53
2019-02-19T09:19:17.546Z,92597.94
2019-02-19T09:22:06.766Z,92590.92
2019-02-19T09:24:56.011Z,92589.92
2019-02-19T09:27:45.608Z,92591.19
2019-02-19T09:30:34.970Z,92585.45
2019-02-19T09:33:24.233Z,92586.98
2019-02-19T09:36:13.499Z,92588.13
2019-02-19T09:39:04.191Z,92580.36
2019-02-19T09:41:53.444Z,92580.56
2019-02-19T09:44:42.779Z,92577.81
2019-02-19T09:47:32.361Z,92576.58
2019-02-19T09:50:21.518Z,92575.22
2019-02-19T09:53:10.546Z,92573.53
2019-02-19T09:55:59.810Z,92567.34
2019-02-19T09:58:49.462Z,92559.04
2019-02-19T10:01:38.739Z,92556.03
2019-02-19T10:04:27.987Z,92553.59
2019-02-19T10:07:19.252Z,92549.34
2019-02-19T10:10:10.554Z,92541.20
2019-02-19T10:12:59.761Z,92543.27
2019-02-19T10:15:49.492Z,92533.91
2019-02-19T10:18:38.780Z,92531.16
2019-02-19T10:21:28.460Z,92519.21
2019-02-19T10:24:18.024Z,92515.58
2019-02-19T10:27:07.648Z,92514.31
2019-02-19T10:29:56.997Z,92507.98
2019-02-19T10:32:46.881Z,92499.27
2019-02-19T10:35:36.312Z,92498.28
2019-02-19T10:38:25.714Z,92493.73
2019-02-19T10:41:15.199Z,92487.59
2019-02-19T10:44:04.600Z,92479.28
2019-02-19T10:46:53.855Z,92474.94
2019-02-19T10:49:42.955Z,92469.18
2019-02-19T10:52:31.886Z,92468.95
2019-02-19T10:55:21.069Z,92468.31
2019-02-19T10:58:11.553Z,92456.35
2019-02-19T11:01:01.152Z,92449.63
2019-02-19T11:03:50.417Z,92451.07
2019-02-19T11:06:39.778Z,92445.06
2019-02-19T11:09:29.158Z,92440.94
2019-02-19T11:12:19.073Z,92437.15
2019-02-19T11:15:08.714Z,92444.08
2019-02-19T11:17:57.798Z,92439.20
2019-02-19T11:20:46.912Z,92435.77
2019-02-19T11:23:35.657Z,92422.33
2019-02-19T11:26:25.106Z,92420.94
2019-02-19T11:29:14.510Z,92419.23
2019-02-19T11:32:04.026Z,92418.30
2019-02-19T11:34:54.525Z,92414.29
2019-02-19T11:37:43.839Z,92412.28
2019-02-19T11:40:33.145Z,92407.53
2019-02-19T11:43:22.748Z,92398.82
2019-02-19T11:46:11.872Z,92394.51
2019-02-19T11:49:01.366Z,92391.80
2019-02-19T11:51:50.711Z,92388.05
2019-02-19T11:54:40.064Z,92380.67
2019-02-19T11:57:29.199Z,92386.69
2019-02-19T12:00:22.511Z,92379.80
2019-02-19T12:03:12.099Z,92377.57
2019-02-19T12:06:01.301Z,92370.27
2019-02-19T12:08:51.208Z,92370.98
2019-02-19T12:11:40.185Z,92364.02
2019-02-19T12:14:29.516Z,92359.52
2019-02-19T12:17:18.776Z,92360.91
2019-02-19T12:20:08.814Z,92354.56
2019-02-19T12:22:58.137Z,92355.20
2019-02-19T12:25:47.927Z,92341.40
2019-02-19T12:28:37.652Z,92343.80
2019-02-19T12:31:26.995Z,92345.00
2019-02-19T12:34:16.260Z,92343.49
2019-02-19T12:37:08.502Z,92336.97
2019-02-19T12:39:57.813Z,92339.20
2019-02-19T12:42:47.167Z,92338.80
2019-02-19T12:45:36.682Z,92337.41
2019-02-19T12:48:26.406Z,92336.59
2019-02-19T12:51:15.744Z,92332.19
2019-02-19T12:54:05.189Z,92322.02
2019-02-19T12:56:54.810Z,92324.38
2019-02-19T12:59:44.243Z,92319.47
2019-02-19T13:02:33.723Z,92320.38
2019-02-19T13:05:23.192Z,92320.25
2019-02-19T13:08:12.631Z,92317.31
2019-02-19T13:11:01.651Z,92323.36
2019-02-19T13:13:51.222Z,92318.69
2019-02-19T13:16:40.708Z,92317.97
2019-02-19T13:19:29.740Z,92314.63
2019-02-19T13:22:18.646Z,92315.40
2019-02-19T13:25:08.743Z,92309.47
2019-02-19T13:27:57.554Z,92312.22
2019-02-19T13:30:46.876Z,92307.12
2019-02-19T13:33:36.210Z,92300.28
2019-02-19T13:36:25.521Z,92298.83
2019-02-19T13:39:15.078Z,92302.45
2019-02-19T13:42:04.772Z,92302.42
2019-02-19T13:44:53.531Z,92297.56
2019-02-19T13:47:42.785Z,92293.48
2019-02-19T13:50:31.937Z,92295.24
2019-02-19T13:53:25.928Z,92298.39
2019-02-19T13:56:15.214Z,92291.33
2019-02-19T13:59:04.479Z,92292.29
2019-02-19T14:01:53.959Z,92301.72
2019-02-19T14:04:43.242Z,92296.28
2019-02-19T14:07:32.162Z,92293.93
2019-02-19T14:13:09.231Z,92294.48
2019-02-19T14:16:20.758Z,92291.48
2019-02-19T14:19:21.221Z,92290.60
2019-02-19T14:22:24.513Z,92288.96
2019-02-19T14:25:32.059Z,92293.45
2019-02-19T14:28:58.497Z,92290.83
2019-02-19T14:32:09.271Z,92287.73
2019-02-19T14:35:16.095Z,92291.81
2019-02-19T14:38:40.089Z,92285.73
2019-02-19T14:41:51.529Z,92286.63
2019-02-19T14:44:58.106Z,92278.78
2019-02-19T14:48:18.645Z,92286.74
2019-02-19T14:51:17.061Z,92287.19
2019-02-19T14:54:24.334Z,92285.44
2019-02-19T14:57:32.830Z,92284.79
2019-02-19T15:00:43.490Z,92282.55
2019-02-19T15:04:00.892Z,92281.48
2019-02-19T15:07:30.029Z,92290.97
2019-02-19T15:10:36.454Z,92283.08
2019-02-19T15:13:39.083Z,92286.17
2019-02-19T15:16:46.223Z,92289.48
2019-02-19T15:19:54.704Z,92281.03
2019-02-19T15:23:02.975Z,92281.87
2019-02-19T15:26:23.520Z,92281.14
2019-02-19T15:29:28.185Z,92280.23
2019-02-19T15:32:35.394Z,92284.77
2019-02-19T15:35:53.933Z,92283.77
2019-02-19T15:39:05.597Z,92288.95
2019-02-19T15:41:48.615Z,92290.03
2019-02-19T15:44:37.047Z,92292.34
2019-02-19T15:47:19.866Z,92290.84
2019-02-19T15:50:06.394Z,92296.92
2019-02-19T15:52:54.924Z,92299.80
2019-02-19T15:55:43.214Z,92300.94
2019-02-19T15:58:27.240Z,92300.69
2019-02-19T16:01:15.789Z,92299.10
2019-02-19T16:04:05.644Z,92294.91
2019-02-19T16:07:14.632Z,92297.30
2019-02-19T16:10:04.606Z,92300.99
2019-02-19T16:12:54.356Z,92308.05
2019-02-19T16:15:46.991Z,92307.91
2019-02-19T16:18:39.606Z,92304.73
2019-02-19T16:21:23.349Z,92307.26
2019-02-19T16:24:03.895Z,92311.83
2019-02-19T16:26:59.498Z,92321.29
2019-02-19T16:29:48.201Z,92316.17
2019-02-19T16:32:38.061Z,92317.87
2019-02-19T16:35:24.561Z,92312.71
2019-02-19T16:38:14.436Z,92311.27
2019-02-19T16:41:13.356Z,92313.38
2019-02-19T16:44:09.048Z,92319.91
2019-02-19T16:46:46.355Z,92322.56
2019-02-19T16:49:29.841Z,92321.63
2019-02-19T16:52:20.099Z,92330.25
2019-02-19T16:54:58.976Z,92326.11
2019-02-19T16:57:51.957Z,92326.03
2019-02-19T17:00:31.146Z,92336.73
2019-02-19T17:03:09.451Z,92338.96
2019-02-19T17:05:54.469Z,92338.70
2019-02-19T17:08:44.261Z,92333.44
2019-02-19T17:11:32.104Z,92332.46
2019-02-19T17:14:20.923Z,92330.31
2019-02-19T17:17:08.264Z,92340.43
2019-02-19T17:20:01.141Z,92335.69
2019-02-19T17:22:39.224Z,92339.36
2019-02-19T17:25:18.368Z,92339.13
2019-02-19T17:28:10.947Z,92338.98
2019-02-19T17:31:12.865Z,92344.80
2019-02-19T17:34:11.586Z,92337.66
2019-02-19T17:36:59.765Z,92341.02
2019-02-19T17:39:48.767Z,92340.95
2019-02-19T17:42:38.868Z,92342.33
2019-02-19T17:45:21.843Z,92339.16
2019-02-19T17:48:03.665Z,92341.55
2019-02-19T17:50:59.828Z,92338.73
2019-02-19T17:53:50.319Z,92348.45
2019-02-19T17:56:32.032Z,92343.66
2019-02-19T17:59:29.419Z,92338.12
2019-02-19T18:02:14.381Z,92340.54
2019-02-19T18:05:09.049Z,92347.49
2019-02-19T18:08:04.927Z,92342.80
2019-02-19T18:10:55.112Z,92344.02
2019-02-19T18:13:40.503Z,92347.81
2019-02-19T18:16:36.329Z,92344.64
2019-02-19T18:19:07.272Z,92345.06
2019-02-19T18:21:38.147Z,92352.33
2019-02-19T18:24:09.148Z,92356.78
2019-02-19T18:26:40.058Z,92361.05
2019-02-19T18:29:10.930Z,92359.61
2019-02-19T18:31:41.811Z,92354.76
2019-02-19T18:34:13.048Z,92357.98
2019-02-19T18:36:43.928Z,92360.24
2019-02-19T18:39:14.866Z,92362.81
2019-02-19T18:41:45.832Z,92364.11
2019-02-19T18:44:17.050Z,92361.51
2019-02-19T18:46:48.004Z,92368.59
2019-02-19T18:49:19.002Z,92369.50
2019-02-19T18:51:50.184Z,92370.09
2019-02-19T18:54:21.139Z,92374.33
2019-02-19T18:56:52.143Z,92376.28
2019-02-19T18:59:23.307Z,92371.90
2019-02-19T19:01:54.325Z,92376.18
2019-02-19T19:04:25.453Z,92378.33
2019-02-19T19:06:56.423Z,92383.05
2019-02-19T19:09:27.557Z,92380.28
2019-02-19T19:11:58.734Z,92381.40
2019-02-19T19:14:29.702Z,92386.20
2019-02-19T19:17:21.707Z,92387.72
2019-02-19T19:20:11.328Z,92387.08
2019-02-19T19:23:00.861Z,92386.39
2019-02-19T19:25:49.782Z,92385.19
2019-02-19T19:28:39.543Z,92395.24
2019-02-19T19:31:33.362Z,92392.48
2019-02-19T19:34:19.521Z,92393.08
2019-02-19T19:37:08.637Z,92401.11
2019-02-19T19:39:58.188Z,92398.66
2019-02-19T19:42:47.827Z,92399.75
2019-02-19T19:45:18.767Z,92399.42
2019-02-19T19:47:49.843Z,92410.10
2019-02-19T19:50:20.729Z,92408.12
2019-02-19T19:52:51.734Z,92416.17
2019-02-19T19:55:22.761Z,92418.73
2019-02-19T19:57:53.907Z,92415.50
2019-02-19T20:00:24.921Z,92421.41
2019-02-19T20:02:56.259Z,92423.56
2019-02-19T20:05:27.776Z,92418.50
2019-02-19T20:07:58.706Z,92418.39
2019-02-19T20:10:29.597Z,92419.76
2019-02-19T20:13:00.695Z,92416.55
2019-02-19T20:15:31.567Z,92413.34
2019-02-19T20:18:02.511Z,92414.63
2019-02-19T20:20:33.689Z,92416.70
2019-02-19T20:23:04.667Z,92416.40
2019-02-19T20:25:35.577Z,92415.70
2019-02-19T20:28:07.248Z,92409.84
2019-02-19T20:30:40.923Z,92411.97
2019-02-19T20:33:11.927Z,92408.11
2019-02-19T20:35:43.049Z,92403.45
2019-02-19T20:38:14.043Z,92408.22
2019-02-19T20:40:45.116Z,92403.56
2019-02-19T20:43:16.081Z,92402.80
2019-02-19T20:45:46.969Z,92404.19
2019-02-19T20:48:17.901Z,92407.41
2019-02-19T20:50:49.256Z,92407.70
2019-02-19T20:53:20.528Z,92410.53
2019-02-19T20:55:51.469Z,92413.48
2019-02-19T20:58:22.343Z,92412.45
2019-02-19T21:01:11.964Z,92411.47
2019-02-19T21:04:01.313Z,92408.56
2019-02-19T21:06:51.289Z,92414.27
2019-02-19T21:09:44.262Z,92408.70
2019-02-19T21:12:33.866Z,92405.78
2019-02-19T21:15:25.497Z,92405.97
2019-02-19T21:18:15.140Z,92408.22
2019-02-19T21:21:06.869Z,92401.02
2019-02-19T21:23:55.817Z,92405.62
2019-02-19T21:26:45.002Z,92407.01
2019-02-19T21:29:35.457Z,92405.86
2019-02-19T21:32:25.820Z,92401.91
2019-02-19T21:35:15.465Z,92403.09
2019-02-19T21:38:04.710Z,92401.37
2019-02-19T21:40:54.371Z,92393.89
2019-02-19T21:43:43.688Z,92395.06
2019-02-19T21:46:35.452Z,92398.14
2019-02-19T21:49:24.839Z,92397.02
2019-02-19T21:52:14.127Z,92397.38
2019-02-19T21:55:05.837Z,92393.97
2019-02-19T21:57:55.474Z,92394.95
2019-02-19T22:00:44.937Z,92393.99
2019-02-19T22:03:34.732Z,92403.38
2019-02-19T22:06:23.931Z,92397.93
2019-02-19T22:09:12.752Z,92399.91
2019-02-19T22:12:01.997Z,92399.16
2019-02-19T22:14:51.381Z,92402.05
2019-02-19T22:17:40.878Z,92395.55
2019-02-19T22:20:49.263Z,92396.23
2019-02-19T22:23:38.686Z,92396.41
2019-02-19T22:26:27.259Z,92393.85
2019-02-19T22:29:16.778Z,92394.34
2019-02-19T22:32:06.177Z,92388.55
2019-02-19T22:34:55.720Z,92390.34
2019-02-19T22:37:45.507Z,92393.73
2019-02-19T22:40:34.987Z,92393.16
2019-02-19T22:43:24.614Z,92398.96
2019-02-19T22:46:13.779Z,92397.25
2019-02-19T22:49:02.603Z,92395.56
2019-02-19T22:51:50.908Z,92393.65
2019-02-19T22:55:00.555Z,92396.02
2019-02-19T22:57:48.227Z,92400.33
2019-02-19T23:00:55.694Z,92395.95
2019-02-19T23:03:44.208Z,92395.45
2019-02-19T23:06:32.589Z,92399.97
2019-02-19T23:09:21.003Z,92399.11
2019-02-19T23:12:09.322Z,92396.11
2019-02-19T23:14:57.163Z,92396.47
2019-02-19T23:17:47.287Z,92395.77
2019-02-19T23:20:34.971Z,92394.36
2019-02-19T23:23:22.999Z,92397.23
2019-02-19T23:26:11.335Z,92389.08
2019-02-19T23:29:00.352Z,92392.56
2019-02-19T23:31:48.409Z,92390.56
2019-02-19T23:34:36.224Z,92386.44
2019-02-19T23:37:26.258Z,92390.32
2019-02-19T23:40:14.518Z,92392.94
2019-02-19T23:43:02.687Z,92397.39
2019-02-19T23:45:50.693Z,92396.63
2019-02-19T23:48:38.386Z,92397.97
2019-02-19T23:51:26.767Z,92397.16
2019-02-19T23:54:15.016Z,92395.70
2019-02-19T23:57:03.072Z,92399.20
2019-02-19T23:59:51.055Z,92399.92
